^^
Station Historical Data
Daily Summary for January 1, 2018 Units:  Both    English   Metric
« Previous Day
Next Day »
Daily Weekly Monthly Yearly Custom
  High: Low: Average:
Temperature: TemperatureC °F /  -17.8 °C -0.4 °F /  -18 °C 0.5 °F /  -17.5 °C
Dew Point: DewpointC °F /  -17.8 °C -1.9 °F /  -18.8 °C -0.6 °F /  -18.1 °C
Humidity: Humidity% 90% 92%
Wind Speed: WindSpeedKMHmph /  0km/h - 0.9mph /  1.4km/h
Wind Gust: WindSpeedGustKMHmph /  0km/h - -
Wind- - SE
Pressure: PressurehPa in /  0 hPa 988.4 in /  33467.2 hPa -
Precipitation: 4.6 in /  116.84 mm    
Historical Graphs
 
 
Tabular Data for January 1, 2018
Time Temperature Dew Point Pressure Wind Wind Speed Wind Gust Humidity Rainfall Rate (Hourly) solar Conditions
TemperatureC °F /  -17.8 °C DewpointC °F /  -17.8 °C PressurehPain /  0hPa Calm     Humidity% HourlyPrecipMMin /  0mm SoftwareType W/m2 Conditions
00:01 -0.4 °F /  -18 °C -1.7 °F /  -18.7 °C 1001.2in /  33900.6hPa SE 2.6mph /  4.2km/h 11.3mph /  18.2km/h 91% 0.0in /  0mm WeatherDisplay:10.37 W/m2 FEW
00:05 -0.4 °F /  -18 °C -1.8 °F /  -18.8 °C 1000.9in /  33890.5hPa SE 3.4mph /  5.5km/h 7.4mph /  11.9km/h 90% 0.0in /  0mm WeatherDisplay:10.37 W/m2 FEW
00:08 -0.4 °F /  -18 °C -1.8 °F /  -18.8 °C 1000.9in /  33890.5hPa Calm   3.7mph /  6km/h 90% 0.0in /  0mm WeatherDisplay:10.37 W/m2 FEW
00:11 -0.3 °F /  -17.9 °C -1.8 °F /  -18.8 °C 1000.9in /  33890.5hPa SE 3.4mph /  5.5km/h 5.6mph /  9km/h 90% 0.0in /  0mm WeatherDisplay:10.37 W/m2 FEW
00:16 -0.3 °F /  -17.9 °C -1.8 °F /  -18.8 °C 1000.9in /  33890.5hPa Calm     90% 0.0in /  0mm WeatherDisplay:10.37 W/m2 FEW
00:21 -0.3 °F /  -17.9 °C -1.8 °F /  -18.8 °C 1000.6in /  33880.3hPa ESE 2.3mph /  3.7km/h 11.1mph /  17.9km/h 90% 0.0in /  0mm WeatherDisplay:10.37 W/m2 FEW
00:26 -0.3 °F /  -17.9 °C -1.6 °F /  -18.7 °C 1000.6in /  33880.3hPa Calm   5.6mph /  9km/h 91% 0.0in /  0mm WeatherDisplay:10.37 W/m2 FEW
00:31 -0.4 °F /  -18 °C -1.7 °F /  -18.7 °C 1000.6in /  33880.3hPa ESE 1.0mph /  1.6km/h 5.6mph /  9km/h 91% 0.0in /  0mm WeatherDisplay:10.37 W/m2 FEW
00:36 -0.4 °F /  -18 °C -1.7 °F /  -18.7 °C 1000.6in /  33880.3hPa South 0.2mph /  0.3km/h 9.3mph /  15km/h 91% 0.0in /  0mm WeatherDisplay:10.37 W/m2 FEW
00:41 -0.4 °F /  -18 °C -1.8 °F /  -18.8 °C 1000.6in /  33880.3hPa Calm   5.6mph /  9km/h 90% 0.0in /  0mm WeatherDisplay:10.37 W/m2 FEW
00:45 -0.4 °F /  -18 °C -1.8 °F /  -18.8 °C 1000.2in /  33866.8hPa SSE 5.0mph /  8km/h 16.7mph /  26.9km/h 90% 0.0in /  0mm WeatherDisplay:10.37 W/m2 FEW
00:50 -0.4 °F /  -18 °C -1.8 °F /  -18.8 °C 1000.2in /  33866.8hPa Calm     90% 0.0in /  0mm WeatherDisplay:10.37 W/m2 FEW
00:52 -0.4 °F /  -18 °C -1.8 °F /  -18.8 °C 1000.2in /  33866.8hPa Calm   4.8mph /  7.7km/h 90% 0.0in /  0mm WeatherDisplay:10.37 W/m2 FEW
00:57 -0.4 °F /  -18 °C -1.8 °F /  -18.8 °C 1000.2in /  33866.8hPa Calm   5.6mph /  9km/h 90% 0.0in /  0mm WeatherDisplay:10.37 W/m2 FEW
01:02 -0.4 °F /  -18 °C -1.8 °F /  -18.8 °C 1000.2in /  33866.8hPa SE 4.5mph /  7.2km/h 7.4mph /  11.9km/h 90% 0.0in /  0mm WeatherDisplay:10.37 W/m2 FEW
01:04 -0.4 °F /  -18 °C -1.8 °F /  -18.8 °C 1000.2in /  33866.8hPa ESE 2.7mph /  4.3km/h 5.6mph /  9km/h 90% 0.0in /  0mm WeatherDisplay:10.37 W/m2 FEW
01:09 -0.4 °F /  -18 °C -1.9 °F /  -18.8 °C 1000.2in /  33866.8hPa SE 1.9mph /  3.1km/h 6.4mph /  10.3km/h 90% 0.0in /  0mm WeatherDisplay:10.37 W/m2 FEW
01:14 -0.4 °F /  -18 °C -1.8 °F /  -18.8 °C 999.9in /  33856.6hPa SE 2.9mph /  4.7km/h 5.6mph /  9km/h 90% 0.0in /  0mm WeatherDisplay:10.37 W/m2 FEW
01:19 -0.4 °F /  -18 °C -1.8 °F /  -18.8 °C 999.9in /  33856.6hPa East 2.3mph /  3.7km/h 11.1mph /  17.9km/h 90% 0.0in /  0mm WeatherDisplay:10.37 W/m2 FEW
01:24 -0.4 °F /  -18 °C -1.8 °F /  -18.8 °C 999.9in /  33856.6hPa Calm   3.7mph /  6km/h 90% 0.0in /  0mm WeatherDisplay:10.37 W/m2 FEW
01:29 -0.4 °F /  -18 °C -1.8 °F /  -18.8 °C 999.9in /  33856.6hPa SE 0.5mph /  0.8km/h 3.2mph /  5.1km/h 90% 0.0in /  0mm WeatherDisplay:10.37 W/m2 FEW
01:34 -0.4 °F /  -18 °C -1.8 °F /  -18.8 °C 999.9in /  33856.6hPa Calm   3.7mph /  6km/h 90% 0.0in /  0mm WeatherDisplay:10.37 W/m2 FEW
01:39 -0.4 °F /  -18 °C -1.8 °F /  -18.8 °C 999.5in /  33843.1hPa ESE 0.5mph /  0.8km/h 3.7mph /  6km/h 90% 0.0in /  0mm WeatherDisplay:10.37 W/m2 FEW
01:43 -0.4 °F /  -18 °C -1.8 °F /  -18.8 °C 999.5in /  33843.1hPa East 1.1mph /  1.8km/h 9.7mph /  15.6km/h 90% 0.0in /  0mm WeatherDisplay:10.37 W/m2 FEW
01:45 -0.3 °F /  -17.9 °C -1.8 °F /  -18.8 °C 999.5in /  33843.1hPa ESE 3.7mph /  6km/h 5.6mph /  9km/h 90% 0.0in /  0mm WeatherDisplay:10.37 W/m2 FEW
01:50 -0.3 °F /  -17.9 °C -1.8 °F /  -18.8 °C 999.5in /  33843.1hPa SE 2.7mph /  4.3km/h 8.0mph /  12.9km/h 90% 0.0in /  0mm WeatherDisplay:10.37 W/m2 FEW
01:53 -0.3 °F /  -17.9 °C -1.8 °F /  -18.8 °C 999.2in /  33832.9hPa ESE 4.0mph /  6.4km/h 9.3mph /  15km/h 90% 0.0in /  0mm WeatherDisplay:10.37 W/m2 FEW
01:58 -0.3 °F /  -17.9 °C -1.8 °F /  -18.8 °C 999.2in /  33832.9hPa SE 2.1mph /  3.4km/h 5.6mph /  9km/h 90% 0.0in /  0mm WeatherDisplay:10.37 W/m2 FEW
02:03 -0.3 °F /  -17.9 °C -1.7 °F /  -18.7 °C 999.2in /  33832.9hPa Calm   3.7mph /  6km/h 90% 0.0in /  0mm WeatherDisplay:10.37 W/m2 FEW
02:08 -0.3 °F /  -17.9 °C -1.7 °F /  -18.7 °C 999.2in /  33832.9hPa East 0.3mph /  0.5km/h 5.6mph /  9km/h 90% 0.0in /  0mm WeatherDisplay:10.37 W/m2 FEW
02:13 -0.2 °F /  -17.9 °C -1.7 °F /  -18.7 °C 998.9in /  33822.8hPa ESE 6.4mph /  10.3km/h 13.0mph /  20.9km/h 90% 0.0in /  0mm WeatherDisplay:10.37 W/m2 FEW
02:15 -0.2 °F /  -17.9 °C -1.7 °F /  -18.7 °C 998.9in /  33822.8hPa South 4.0mph /  6.4km/h 9.3mph /  15km/h 90% 0.0in /  0mm WeatherDisplay:10.37 W/m2 FEW
02:20 -0.2 °F /  -17.9 °C -1.6 °F /  -18.7 °C 998.9in /  33822.8hPa SE 3.9mph /  6.3km/h 5.6mph /  9km/h 90% 0.0in /  0mm WeatherDisplay:10.37 W/m2 FEW
02:25 -0.1 °F /  -17.8 °C -1.4 °F /  -18.6 °C 998.9in /  33822.8hPa SE 5.3mph /  8.5km/h 6.4mph /  10.3km/h 91% 0.0in /  0mm WeatherDisplay:10.37 W/m2 FEW
02:30 -0.1 °F /  -17.8 °C -1.5 °F /  -18.6 °C 998.9in /  33822.8hPa SSE 4.3mph /  6.9km/h 11.1mph /  17.9km/h 90% 0.0in /  0mm WeatherDisplay:10.37 W/m2 FEW
02:33 -0.1 °F /  -17.8 °C -1.3 °F /  -18.5 °C 998.9in /  33822.8hPa East 3.4mph /  5.5km/h 7.4mph /  11.9km/h 91% 0.0in /  0mm WeatherDisplay:10.37 W/m2 FEW
02:34 -0.1 °F /  -17.8 °C -1.3 °F /  -18.5 °C 998.5in /  33809.2hPa SSE 4.3mph /  6.9km/h 5.6mph /  9km/h 91% 0.0in /  0mm WeatherDisplay:10.37 W/m2 FEW
02:40 0.0 °F /  -17.8 °C -1.3 °F /  -18.5 °C 998.5in /  33809.2hPa ESE 4.7mph /  7.6km/h 9.3mph /  15km/h 91% 0.0in /  0mm WeatherDisplay:10.37 W/m2 FEW
02:45 0.1 °F /  -17.7 °C -1.2 °F /  -18.4 °C 998.5in /  33809.2hPa East 6.6mph /  10.6km/h 17.7mph /  28.5km/h 91% 0.0in /  0mm WeatherDisplay:10.37 W/m2 FEW
02:50 0.1 °F /  -17.7 °C -1.2 °F /  -18.4 °C 998.2in /  33799.1hPa East 5.0mph /  8km/h 9.7mph /  15.6km/h 91% 0.0in /  0mm WeatherDisplay:10.37 W/m2 FEW
02:51 0.1 °F /  -17.7 °C -1.2 °F /  -18.4 °C 998.2in /  33799.1hPa ESE 6.6mph /  10.6km/h 9.3mph /  15km/h 91% 0.0in /  0mm WeatherDisplay:10.37 W/m2 FEW
02:56 0.1 °F /  -17.7 °C -1.2 °F /  -18.4 °C 998.2in /  33799.1hPa SE 2.4mph /  3.9km/h 13.0mph /  20.9km/h 91% 0.0in /  0mm WeatherDisplay:10.37 W/m2 FEW
02:57 0.1 °F /  -17.7 °C -1.2 °F /  -18.4 °C 998.2in /  33799.1hPa ESE 3.7mph /  6km/h 7.4mph /  11.9km/h 91% 0.0in /  0mm WeatherDisplay:10.37 W/m2 FEW
03:03 0.1 °F /  -17.7 °C -1.1 °F /  -18.4 °C 998.2in /  33799.1hPa East 3.2mph /  5.1km/h 5.6mph /  9km/h 92% 0.0in /  0mm WeatherDisplay:10.37 W/m2 FEW
03:08 0.1 °F /  -17.7 °C -1.1 °F /  -18.4 °C 998.2in /  33799.1hPa SE 3.1mph /  5km/h 7.4mph /  11.9km/h 92% 0.0in /  0mm WeatherDisplay:10.37 W/m2 FEW
03:13 0.1 °F /  -17.7 °C -1.1 °F /  -18.4 °C 997.9in /  33788.9hPa ENE 2.3mph /  3.7km/h 7.4mph /  11.9km/h 92% 0.0in /  0mm WeatherDisplay:10.37 W/m2 FEW
03:16 0.1 °F /  -17.7 °C -1.1 °F /  -18.4 °C 998.2in /  33799.1hPa East 5.3mph /  8.5km/h 11.1mph /  17.9km/h 92% 0.0in /  0mm WeatherDisplay:10.37 W/m2 FEW
03:22 0.1 °F /  -17.7 °C -1.1 °F /  -18.4 °C 998.2in /  33799.1hPa Calm     92% 0.0in /  0mm WeatherDisplay:10.37 W/m2 FEW
03:27 0.1 °F /  -17.7 °C -1.1 °F /  -18.4 °C 998.2in /  33799.1hPa Calm     92% 0.0in /  0mm WeatherDisplay:10.37 W/m2 FEW
03:29 0.1 °F /  -17.7 °C -0.9 °F /  -18.3 °C 998.2in /  33799.1hPa SE 5.1mph /  8.2km/h 9.3mph /  15km/h 93% 0.0in /  0mm WeatherDisplay:10.37 W/m2 FEW
03:34 0.1 °F /  -17.7 °C -0.9 °F /  -18.3 °C 998.2in /  33799.1hPa East 3.9mph /  6.3km/h 7.4mph /  11.9km/h 93% 0.0in /  0mm WeatherDisplay:10.37 W/m2 FEW
03:36 0.1 °F /  -17.7 °C -0.9 °F /  -18.3 °C 998.2in /  33799.1hPa Calm   5.6mph /  9km/h 93% 0.0in /  0mm WeatherDisplay:10.37 W/m2 FEW
03:42 0.1 °F /  -17.7 °C -0.9 °F /  -18.3 °C 998.2in /  33799.1hPa ESE 4.5mph /  7.2km/h 11.1mph /  17.9km/h 93% 0.0in /  0mm WeatherDisplay:10.37 W/m2 FEW
03:44 0.1 °F /  -17.7 °C -0.9 °F /  -18.3 °C 998.2in /  33799.1hPa SE 1.1mph /  1.8km/h 5.6mph /  9km/h 93% 0.0in /  0mm WeatherDisplay:10.37 W/m2 FEW
03:49 0.1 °F /  -17.7 °C -0.9 °F /  -18.3 °C 998.2in /  33799.1hPa Calm     93% 0.0in /  0mm WeatherDisplay:10.37 W/m2 FEW
03:54 0.0 °F /  -17.8 °C -1.0 °F /  -18.3 °C 997.9in /  33788.9hPa SE 0.5mph /  0.8km/h 3.7mph /  6km/h 93% 0.0in /  0mm WeatherDisplay:10.37 W/m2 FEW
03:55 0.0 °F /  -17.8 °C -1.0 °F /  -18.3 °C 997.9in /  33788.9hPa SE 0.3mph /  0.5km/h 3.2mph /  5.1km/h 93% 0.0in /  0mm WeatherDisplay:10.37 W/m2 FEW
04:00 0.0 °F /  -17.8 °C -1.0 °F /  -18.3 °C 997.9in /  33788.9hPa SE 0.3mph /  0.5km/h 1.9mph /  3.1km/h 93% 0.3in /  7.62mm WeatherDisplay:10.37 W/m2 RA
04:04 0.0 °F /  -17.8 °C -0.8 °F /  -18.2 °C 997.5in /  33775.4hPa Calm     94% 0.3in /  7.62mm WeatherDisplay:10.37 W/m2 RA
04:09 0.0 °F /  -17.8 °C -0.8 °F /  -18.2 °C 997.5in /  33775.4hPa Calm   1.9mph /  3.1km/h 94% 0.5in /  12.7mm WeatherDisplay:10.37 W/m2 RA
04:10 0.0 °F /  -17.8 °C -0.8 °F /  -18.2 °C 997.5in /  33775.4hPa ESE 0.3mph /  0.5km/h 1.6mph /  2.6km/h 94% 0.5in /  12.7mm WeatherDisplay:10.37 W/m2 RA
04:15 0.0 °F /  -17.8 °C -0.8 °F /  -18.2 °C 997.2in /  33765.2hPa SE 0.5mph /  0.8km/h 3.7mph /  6km/h 94% 0.5in /  12.7mm WeatherDisplay:10.37 W/m2 RA
04:21 0.0 °F /  -17.8 °C -0.8 °F /  -18.2 °C 997.2in /  33765.2hPa SE 1.1mph /  1.8km/h 5.6mph /  9km/h 94% 0.8in /  20.32mm WeatherDisplay:10.37 W/m2 RA
04:26 0.0 °F /  -17.8 °C -0.8 °F /  -18.2 °C 997.2in /  33765.2hPa SE 5.0mph /  8km/h 14.5mph /  23.3km/h 94% 1.0in /  25.4mm WeatherDisplay:10.37 W/m2 RA
04:31 0.1 °F /  -17.7 °C -0.8 °F /  -18.2 °C 997.2in /  33765.2hPa SE 3.7mph /  6km/h 9.3mph /  15km/h 94% 1.0in /  25.4mm WeatherDisplay:10.37 W/m2 RA
04:33 0.1 °F /  -17.7 °C -0.8 °F /  -18.2 °C 996.8in /  33751.6hPa SE 8.2mph /  13.2km/h 14.8mph /  23.8km/h 94% 1.3in /  33.02mm WeatherDisplay:10.37 W/m2 RA
04:39 0.1 °F /  -17.7 °C -0.8 °F /  -18.2 °C 996.8in /  33751.6hPa SE 0.5mph /  0.8km/h 3.7mph /  6km/h 94% 1.3in /  33.02mm WeatherDisplay:10.37 W/m2 RA
04:44 0.1 °F /  -17.7 °C -0.8 °F /  -18.2 °C 996.8in /  33751.6hPa ESE 0.8mph /  1.3km/h 3.7mph /  6km/h 94% 1.5in /  38.1mm WeatherDisplay:10.37 W/m2 RA
04:45 0.1 °F /  -17.7 °C -0.8 °F /  -18.2 °C 996.8in /  33751.6hPa SE 3.2mph /  5.1km/h 5.6mph /  9km/h 94% 1.5in /  38.1mm WeatherDisplay:10.37 W/m2 RA
04:51 0.1 °F /  -17.7 °C -0.8 °F /  -18.2 °C 996.8in /  33751.6hPa SE 2.1mph /  3.4km/h 5.6mph /  9km/h 94% 1.5in /  38.1mm WeatherDisplay:10.37 W/m2 RA
04:56 0.1 °F /  -17.7 °C -0.8 °F /  -18.2 °C 996.8in /  33751.6hPa ESE 3.1mph /  5km/h 5.6mph /  9km/h 94% 1.5in /  38.1mm WeatherDisplay:10.37 W/m2 RA
04:58 0.1 °F /  -17.7 °C -0.8 °F /  -18.2 °C 996.8in /  33751.6hPa Calm   5.6mph /  9km/h 94% 1.5in /  38.1mm WeatherDisplay:10.37 W/m2 RA
05:04 0.1 °F /  -17.7 °C -0.9 °F /  -18.3 °C 996.8in /  33751.6hPa ESE 0.2mph /  0.3km/h 1.9mph /  3.1km/h 93% 1.5in /  38.1mm WeatherDisplay:10.37 W/m2 RA
05:09 0.1 °F /  -17.7 °C -0.9 °F /  -18.3 °C 996.8in /  33751.6hPa SE 4.2mph /  6.8km/h 7.4mph /  11.9km/h 93% 1.5in /  38.1mm WeatherDisplay:10.37 W/m2 RA
05:14 0.1 °F /  -17.7 °C -0.9 °F /  -18.3 °C 996.8in /  33751.6hPa SE 3.2mph /  5.1km/h 5.6mph /  9km/h 93% 1.5in /  38.1mm WeatherDisplay:10.37 W/m2 RA
05:15 0.1 °F /  -17.7 °C -0.9 °F /  -18.3 °C 996.8in /  33751.6hPa ESE 3.5mph /  5.6km/h 6.4mph /  10.3km/h 93% 1.5in /  38.1mm WeatherDisplay:10.37 W/m2 RA
05:20 0.1 °F /  -17.7 °C -0.9 °F /  -18.3 °C 996.5in /  33741.5hPa SE 1.0mph /  1.6km/h 1.6mph /  2.6km/h 93% 1.3in /  33.02mm WeatherDisplay:10.37 W/m2 RA
05:25 0.1 °F /  -17.7 °C -0.9 °F /  -18.3 °C 996.5in /  33741.5hPa Calm     93% 1.3in /  33.02mm WeatherDisplay:10.37 W/m2 RA
05:26 0.1 °F /  -17.7 °C -0.9 °F /  -18.3 °C 996.5in /  33741.5hPa Calm     93% 1.3in /  33.02mm WeatherDisplay:10.37 W/m2 RA
05:31 0.1 °F /  -17.7 °C -0.9 °F /  -18.3 °C 996.5in /  33741.5hPa SE 0.6mph /  1km/h 3.7mph /  6km/h 93% 1.3in /  33.02mm WeatherDisplay:10.37 W/m2 RA
05:36 0.1 °F /  -17.7 °C -0.9 °F /  -18.3 °C 996.5in /  33741.5hPa SE 1.1mph /  1.8km/h 5.6mph /  9km/h 93% 1.0in /  25.4mm WeatherDisplay:10.37 W/m2 FEW
05:41 0.1 °F /  -17.7 °C -0.9 °F /  -18.3 °C 996.5in /  33741.5hPa Calm     93% 1.0in /  25.4mm WeatherDisplay:10.37 W/m2 RA
05:44 0.1 °F /  -17.7 °C -0.9 °F /  -18.3 °C 996.5in /  33741.5hPa SE 4.2mph /  6.8km/h 7.4mph /  11.9km/h 93% 1.0in /  25.4mm WeatherDisplay:10.37 W/m2 RA
05:46 0.1 °F /  -17.7 °C -0.9 °F /  -18.3 °C 996.5in /  33741.5hPa SE 0.5mph /  0.8km/h 3.7mph /  6km/h 93% 1.0in /  25.4mm WeatherDisplay:10.37 W/m2 RA
05:50 0.1 °F /  -17.7 °C -0.9 °F /  -18.3 °C 996.2in /  33731.3hPa Calm     93% 1.0in /  25.4mm WeatherDisplay:10.37 W/m2 FEW
05:52 0.1 °F /  -17.7 °C -0.9 °F /  -18.3 °C 996.2in /  33731.3hPa Calm     93% 0.8in /  20.32mm WeatherDisplay:10.37 W/m2 FEW
05:57 0.1 °F /  -17.7 °C -0.9 °F /  -18.3 °C 996.2in /  33731.3hPa Calm     93% 0.8in /  20.32mm WeatherDisplay:10.37 W/m2 FEW
06:02 0.1 °F /  -17.7 °C -0.9 °F /  -18.3 °C 996.2in /  33731.3hPa Calm   1.9mph /  3.1km/h 93% 0.8in /  20.32mm WeatherDisplay:10.37 W/m2 RA
06:05 0.1 °F /  -17.7 °C -0.9 °F /  -18.3 °C 995.8in /  33717.8hPa Calm     93% 0.8in /  20.32mm WeatherDisplay:10.37 W/m2 RA
06:10 0.1 °F /  -17.7 °C -0.9 °F /  -18.3 °C 995.8in /  33717.8hPa Calm     93% 0.8in /  20.32mm WeatherDisplay:10.37 W/m2 FEW
06:15 0.1 °F /  -17.7 °C -0.9 °F /  -18.3 °C 995.8in /  33717.8hPa Calm   3.7mph /  6km/h 93% 0.5in /  12.7mm WeatherDisplay:10.37 W/m2 FEW
06:20 0.1 °F /  -17.7 °C -0.9 °F /  -18.3 °C 995.8in /  33717.8hPa Calm     93% 0.5in /  12.7mm WeatherDisplay:10.37 W/m2 FEW
06:23 0.1 °F /  -17.7 °C -0.9 °F /  -18.3 °C 995.8in /  33717.8hPa Calm     93% 0.5in /  12.7mm WeatherDisplay:10.37 W/m2 RA
06:28 0.1 °F /  -17.7 °C -0.9 °F /  -18.3 °C 995.8in /  33717.8hPa Calm     93% 0.5in /  12.7mm WeatherDisplay:10.37 W/m2 RA
06:31 0.1 °F /  -17.7 °C -0.9 °F /  -18.3 °C 995.8in /  33717.8hPa Calm     93% 0.5in /  12.7mm WeatherDisplay:10.37 W/m2 RA
06:36 0.1 °F /  -17.7 °C -0.9 °F /  -18.3 °C 995.5in /  33707.6hPa SE 3.2mph /  5.1km/h 5.6mph /  9km/h 93% 0.5in /  12.7mm WeatherDisplay:10.37 W/m2 FEW
06:41 0.1 °F /  -17.7 °C -0.9 °F /  -18.3 °C 995.5in /  33707.6hPa Calm     93% 0.5in /  12.7mm WeatherDisplay:10.37 W/m2 FEW
06:46 0.1 °F /  -17.7 °C -0.9 °F /  -18.3 °C 995.5in /  33707.6hPa Calm     93% 0.5in /  12.7mm WeatherDisplay:10.37 W/m2 FEW
06:50 0.1 °F /  -17.7 °C -0.9 °F /  -18.3 °C 995.5in /  33707.6hPa Calm     93% 0.5in /  12.7mm WeatherDisplay:10.37 W/m2 FEW
06:55 0.1 °F /  -17.7 °C -0.9 °F /  -18.3 °C 995.5in /  33707.6hPa Calm     93% 0.5in /  12.7mm WeatherDisplay:10.37 W/m2 FEW
07:00 0.1 °F /  -17.7 °C -0.9 °F /  -18.3 °C 995.1in /  33694.1hPa SE 1.0mph /  1.6km/h 3.7mph /  6km/h 93% 0.3in /  7.62mm WeatherDisplay:10.37 W/m2 FEW
07:05 0.1 °F /  -17.7 °C -0.9 °F /  -18.3 °C 995.5in /  33707.6hPa Calm     93% 0.3in /  7.62mm WeatherDisplay:10.37 W/m2 FEW
07:07 0.1 °F /  -17.7 °C -0.9 °F /  -18.3 °C 995.5in /  33707.6hPa Calm     93% 0.3in /  7.62mm WeatherDisplay:10.37 W/m2 FEW
07:12 0.2 °F /  -17.7 °C -0.8 °F /  -18.2 °C 995.5in /  33707.6hPa Calm   1.9mph /  3.1km/h 93% 0.3in /  7.62mm WeatherDisplay:10.37 W/m2 FEW
07:17 0.2 °F /  -17.7 °C -0.8 °F /  -18.2 °C 995.1in /  33694.1hPa SE 0.2mph /  0.3km/h 5.6mph /  9km/h 93% 0.3in /  7.62mm WeatherDisplay:10.37 W/m2 FEW
07:22 0.2 °F /  -17.7 °C -0.8 °F /  -18.2 °C 995.1in /  33694.1hPa Calm     93% 0.0in /  0mm WeatherDisplay:10.37 W/m2 FEW
07:27 0.2 °F /  -17.7 °C -0.8 °F /  -18.2 °C 995.1in /  33694.1hPa SE 2.6mph /  4.2km/h 3.7mph /  6km/h 93% 0.0in /  0mm WeatherDisplay:10.37 W/m2 FEW
07:32 0.2 °F /  -17.7 °C -0.8 °F /  -18.2 °C 995.1in /  33694.1hPa Calm     93% 0.0in /  0mm WeatherDisplay:10.37 W/m2 FEW
07:37 0.2 °F /  -17.7 °C -0.8 °F /  -18.2 °C 995.1in /  33694.1hPa Calm     93% 0.0in /  0mm WeatherDisplay:10.37 W/m2 FEW
07:42 0.2 °F /  -17.7 °C -0.8 °F /  -18.2 °C 995.1in /  33694.1hPa Calm   5.6mph /  9km/h 93% 0.0in /  0mm WeatherDisplay:10.37 W/m2 FEW
07:43 0.2 °F /  -17.7 °C -0.8 °F /  -18.2 °C 995.1in /  33694.1hPa Calm     93% 0.0in /  0mm WeatherDisplay:10.37 W/m2 FEW
07:48 0.2 °F /  -17.7 °C -0.8 °F /  -18.2 °C 994.8in /  33683.9hPa SE 1.4mph /  2.3km/h   93% 0.0in /  0mm WeatherDisplay:10.37 W/m2 FEW
07:53 0.3 °F /  -17.6 °C -0.7 °F /  -18.2 °C 994.8in /  33683.9hPa Calm     93% 0.0in /  0mm WeatherDisplay:10.37 W/m2 FEW
07:58 0.3 °F /  -17.6 °C -0.7 °F /  -18.2 °C 994.8in /  33683.9hPa SE 0.3mph /  0.5km/h   93% 0.0in /  0mm WeatherDisplay:10.37 W/m2 FEW
08:02 0.3 °F /  -17.6 °C -0.7 °F /  -18.2 °C 994.8in /  33683.9hPa Calm     93% 0.0in /  0mm WeatherDisplay:10.37 W/m2 FEW
08:07 0.3 °F /  -17.6 °C -0.7 °F /  -18.2 °C 994.8in /  33683.9hPa Calm     93% 0.0in /  0mm WeatherDisplay:10.37 W/m2 FEW
08:09 0.3 °F /  -17.6 °C -0.7 °F /  -18.2 °C 994.8in /  33683.9hPa Calm     93% 0.0in /  0mm WeatherDisplay:10.37 W/m2 FEW
08:10 0.3 °F /  -17.6 °C -0.7 °F /  -18.2 °C 994.8in /  33683.9hPa SSE 1.0mph /  1.6km/h 5.6mph /  9km/h 93% 0.0in /  0mm WeatherDisplay:10.37 W/m2 FEW
08:15 0.3 °F /  -17.6 °C -0.7 °F /  -18.2 °C 994.8in /  33683.9hPa Calm     93% 0.0in /  0mm WeatherDisplay:10.37 W/m2 FEW
08:20 0.3 °F /  -17.6 °C -0.7 °F /  -18.2 °C 994.8in /  33683.9hPa Calm     93% 0.0in /  0mm WeatherDisplay:10.37 W/m2 FEW
08:25 0.3 °F /  -17.6 °C -0.7 °F /  -18.2 °C 994.8in /  33683.9hPa Calm     93% 0.0in /  0mm WeatherDisplay:10.37 W/m2 FEW
08:30 0.3 °F /  -17.6 °C -0.7 °F /  -18.2 °C 994.8in /  33683.9hPa Calm     93% 0.0in /  0mm WeatherDisplay:10.37 W/m2 FEW
08:35 0.3 °F /  -17.6 °C -0.7 °F /  -18.2 °C 994.8in /  33683.9hPa Calm     93% 0.0in /  0mm WeatherDisplay:10.37 W/m2 FEW
08:37 0.3 °F /  -17.6 °C -0.7 °F /  -18.2 °C 994.8in /  33683.9hPa SSE 0.2mph /  0.3km/h 1.9mph /  3.1km/h 93% 0.0in /  0mm WeatherDisplay:10.37 W/m2 FEW
08:42 0.4 °F /  -17.6 °C -0.6 °F /  -18.1 °C 994.8in /  33683.9hPa Calm     93% 0.0in /  0mm WeatherDisplay:10.37 W/m2 FEW
08:47 0.4 °F /  -17.6 °C -0.6 °F /  -18.1 °C 994.8in /  33683.9hPa SSE 1.0mph /  1.6km/h 5.6mph /  9km/h 93% 0.0in /  0mm WeatherDisplay:10.37 W/m2 FEW
08:52 0.4 °F /  -17.6 °C -0.6 °F /  -18.1 °C 994.8in /  33683.9hPa Calm     93% 0.0in /  0mm WeatherDisplay:10.37 W/m2 FEW
08:54 0.4 °F /  -17.6 °C -0.6 °F /  -18.1 °C 994.8in /  33683.9hPa Calm     93% 0.0in /  0mm WeatherDisplay:10.37 W/m2 FEW
08:59 0.4 °F /  -17.6 °C -0.6 °F /  -18.1 °C 994.8in /  33683.9hPa SSE 1.0mph /  1.6km/h 3.2mph /  5.1km/h 93% 0.0in /  0mm WeatherDisplay:10.37 W/m2 FEW
09:03 0.4 °F /  -17.6 °C -0.6 °F /  -18.1 °C 994.8in /  33683.9hPa SSE 0.5mph /  0.8km/h 5.6mph /  9km/h 93% 0.0in /  0mm WeatherDisplay:10.37 W/m2 FEW
09:08 0.4 °F /  -17.6 °C -0.6 °F /  -18.1 °C 994.8in /  33683.9hPa Calm     93% 0.0in /  0mm WeatherDisplay:10.37 W/m2 FEW
09:13 0.4 °F /  -17.6 °C -0.6 °F /  -18.1 °C 994.8in /  33683.9hPa SSE 1.1mph /  1.8km/h 5.6mph /  9km/h 93% 0.0in /  0mm WeatherDisplay:10.37 W/m2 FEW
09:18 0.4 °F /  -17.6 °C -0.6 °F /  -18.1 °C 994.5in /  33673.8hPa Calm     93% 0.0in /  0mm WeatherDisplay:10.37 W/m2 FEW
09:23 0.5 °F /  -17.5 °C -0.5 °F /  -18.1 °C 994.5in /  33673.8hPa Calm     93% 0.0in /  0mm WeatherDisplay:10.37 W/m2 FEW
09:28 0.5 °F /  -17.5 °C -0.5 °F /  -18.1 °C 994.5in /  33673.8hPa Calm     93% 0.0in /  0mm WeatherDisplay:10.37 W/m2 FEW
09:33 0.5 °F /  -17.5 °C -0.5 °F /  -18.1 °C 994.5in /  33673.8hPa Calm     93% 0.0in /  0mm WeatherDisplay:10.37 W/m2 FEW
09:38 0.5 °F /  -17.5 °C -0.5 °F /  -18.1 °C 994.5in /  33673.8hPa Calm     93% 0.0in /  0mm WeatherDisplay:10.37 W/m2 FEW
09:39 0.5 °F /  -17.5 °C -0.5 °F /  -18.1 °C 994.5in /  33673.8hPa Calm     93% 0.0in /  0mm WeatherDisplay:10.37 W/m2 FEW
09:44 0.5 °F /  -17.5 °C -0.5 °F /  -18.1 °C 994.5in /  33673.8hPa Calm     93% 0.0in /  0mm WeatherDisplay:10.37 W/m2 FEW
09:45 0.5 °F /  -17.5 °C -0.5 °F /  -18.1 °C 994.5in /  33673.8hPa Calm     93% 0.0in /  0mm WeatherDisplay:10.37 W/m2 FEW
09:50 0.5 °F /  -17.5 °C -0.5 °F /  -18.1 °C 994.5in /  33673.8hPa Calm   1.6mph /  2.6km/h 93% 0.0in /  0mm WeatherDisplay:10.37 W/m2 FEW
09:56 0.5 °F /  -17.5 °C -0.5 °F /  -18.1 °C 994.5in /  33673.8hPa Calm     93% 0.0in /  0mm WeatherDisplay:10.37 W/m2 FEW
10:01 0.5 °F /  -17.5 °C -0.5 °F /  -18.1 °C 994.5in /  33673.8hPa Calm     93% 0.0in /  0mm WeatherDisplay:10.37 W/m2 FEW
10:06 0.5 °F /  -17.5 °C -0.5 °F /  -18.1 °C 994.5in /  33673.8hPa Calm     93% 0.0in /  0mm WeatherDisplay:10.37 W/m2 FEW
10:11 0.5 °F /  -17.5 °C -0.5 °F /  -18.1 °C 994.1in /  33660.2hPa SSE 2.6mph /  4.2km/h 5.6mph /  9km/h 93% 0.0in /  0mm WeatherDisplay:10.37 W/m2 FEW
10:16 0.6 °F /  -17.4 °C -0.4 °F /  -18 °C 994.5in /  33673.8hPa Calm     93% 0.0in /  0mm WeatherDisplay:10.37 W/m2 FEW
10:22 0.6 °F /  -17.4 °C -0.4 °F /  -18 °C 994.5in /  33673.8hPa Calm     93% 0.0in /  0mm WeatherDisplay:10.37 W/m2 FEW
10:27 0.6 °F /  -17.4 °C -0.4 °F /  -18 °C 994.5in /  33673.8hPa SSE 0.2mph /  0.3km/h 1.9mph /  3.1km/h 93% 0.0in /  0mm WeatherDisplay:10.37 W/m2 FEW
10:32 0.6 °F /  -17.4 °C -0.4 °F /  -18 °C 994.5in /  33673.8hPa Calm     93% 0.0in /  0mm WeatherDisplay:10.37 W/m2 FEW
10:37 0.6 °F /  -17.4 °C -0.4 °F /  -18 °C 994.5in /  33673.8hPa Calm     93% 0.0in /  0mm WeatherDisplay:10.37 W/m2 FEW
10:42 0.6 °F /  -17.4 °C -0.4 °F /  -18 °C 994.5in /  33673.8hPa Calm     93% 0.0in /  0mm WeatherDisplay:10.37 W/m2 FEW
10:47 0.6 °F /  -17.4 °C -0.4 °F /  -18 °C 994.5in /  33673.8hPa Calm     93% 0.0in /  0mm WeatherDisplay:10.37 W/m2 FEW
10:52 0.6 °F /  -17.4 °C -0.4 °F /  -18 °C 994.5in /  33673.8hPa SSE 1.3mph /  2.1km/h 3.2mph /  5.1km/h 93% 0.0in /  0mm WeatherDisplay:10.37 W/m2 FEW
10:54 0.6 °F /  -17.4 °C -0.4 °F /  -18 °C 994.5in /  33673.8hPa Calm   1.9mph /  3.1km/h 93% 0.0in /  0mm WeatherDisplay:10.37 W/m2 FEW
10:59 0.6 °F /  -17.4 °C -0.4 °F /  -18 °C 994.5in /  33673.8hPa Calm     93% 0.0in /  0mm WeatherDisplay:10.37 W/m2 FEW
11:05 0.6 °F /  -17.4 °C -0.4 °F /  -18 °C 994.5in /  33673.8hPa Calm   1.9mph /  3.1km/h 93% 0.0in /  0mm WeatherDisplay:10.37 W/m2 FEW
11:10 0.6 °F /  -17.4 °C -0.4 °F /  -18 °C 994.5in /  33673.8hPa Calm     93% 0.0in /  0mm WeatherDisplay:10.37 W/m2 FEW
11:15 0.6 °F /  -17.4 °C -0.4 °F /  -18 °C 994.1in /  33660.2hPa SSE 1.4mph /  2.3km/h 3.7mph /  6km/h 93% 0.0in /  0mm WeatherDisplay:10.37 W/m2 FEW
11:18 0.6 °F /  -17.4 °C -0.4 °F /  -18 °C 994.1in /  33660.2hPa SSE 1.8mph /  2.9km/h 5.6mph /  9km/h 93% 0.0in /  0mm WeatherDisplay:10.37 W/m2 FEW
11:21 0.6 °F /  -17.4 °C -0.4 °F /  -18 °C 994.1in /  33660.2hPa Calm     93% 0.0in /  0mm WeatherDisplay:10.37 W/m2 FEW
11:26 0.7 °F /  -17.4 °C -0.3 °F /  -17.9 °C 994.1in /  33660.2hPa Calm   3.7mph /  6km/h 93% 0.0in /  0mm WeatherDisplay:10.37 W/m2 FEW
11:29 0.7 °F /  -17.4 °C -0.3 °F /  -17.9 °C 994.1in /  33660.2hPa Calm     93% 0.0in /  0mm WeatherDisplay:10.37 W/m2 FEW
11:34 0.6 °F /  -17.4 °C -0.4 °F /  -18 °C 994.1in /  33660.2hPa SSE 1.1mph /  1.8km/h 3.7mph /  6km/h 93% 0.0in /  0mm WeatherDisplay:10.37 W/m2 FEW
11:39 0.7 °F /  -17.4 °C -0.3 °F /  -17.9 °C 994.1in /  33660.2hPa SSE 0.3mph /  0.5km/h 5.6mph /  9km/h 93% 0.0in /  0mm WeatherDisplay:10.37 W/m2 FEW
11:44 0.7 °F /  -17.4 °C -0.3 °F /  -17.9 °C 993.8in /  33650.1hPa Calm     93% 0.0in /  0mm WeatherDisplay:10.37 W/m2 FEW
11:49 0.7 °F /  -17.4 °C -0.3 °F /  -17.9 °C 993.8in /  33650.1hPa Calm     93% 0.0in /  0mm WeatherDisplay:10.37 W/m2 FEW
11:54 0.7 °F /  -17.4 °C -0.3 °F /  -17.9 °C 993.8in /  33650.1hPa Calm     93% 0.0in /  0mm WeatherDisplay:10.37 W/m2 FEW
11:59 0.7 °F /  -17.4 °C -0.3 °F /  -17.9 °C 993.8in /  33650.1hPa SE 1.6mph /  2.6km/h 5.6mph /  9km/h 93% 0.0in /  0mm WeatherDisplay:10.37 W/m2 FEW
12:00 0.7 °F /  -17.4 °C -0.3 °F /  -17.9 °C 993.8in /  33650.1hPa Calm   3.7mph /  6km/h 93% 0.0in /  0mm WeatherDisplay:10.37 W/m2 FEW
12:06 0.7 °F /  -17.4 °C -0.3 °F /  -17.9 °C 993.8in /  33650.1hPa SE 1.3mph /  2.1km/h 5.6mph /  9km/h 93% 0.0in /  0mm WeatherDisplay:10.37 W/m2 FEW
12:11 0.7 °F /  -17.4 °C -0.3 °F /  -17.9 °C 993.8in /  33650.1hPa Calm     93% 0.0in /  0mm WeatherDisplay:10.37 W/m2 FEW
12:16 0.7 °F /  -17.4 °C -0.3 °F /  -17.9 °C 993.8in /  33650.1hPa Calm     93% 0.0in /  0mm WeatherDisplay:10.37 W/m2 FEW
12:21 0.7 °F /  -17.4 °C -0.3 °F /  -17.9 °C 993.8in /  33650.1hPa Calm     93% 0.0in /  0mm WeatherDisplay:10.37 W/m2 FEW
12:26 0.7 °F /  -17.4 °C -0.3 °F /  -17.9 °C 993.8in /  33650.1hPa Calm     93% 0.0in /  0mm WeatherDisplay:10.37 W/m2 FEW
12:31 0.7 °F /  -17.4 °C -0.3 °F /  -17.9 °C 993.8in /  33650.1hPa Calm     93% 0.0in /  0mm WeatherDisplay:10.37 W/m2 FEW
12:36 0.7 °F /  -17.4 °C -0.3 °F /  -17.9 °C 993.8in /  33650.1hPa Calm     93% 0.0in /  0mm WeatherDisplay:10.37 W/m2 FEW
12:41 0.7 °F /  -17.4 °C -0.3 °F /  -17.9 °C 993.5in /  33639.9hPa Calm     93% 0.0in /  0mm WeatherDisplay:10.37 W/m2 FEW
12:42 0.7 °F /  -17.4 °C -0.3 °F /  -17.9 °C 993.5in /  33639.9hPa Calm     93% 0.0in /  0mm WeatherDisplay:10.37 W/m2 FEW
12:47 0.7 °F /  -17.4 °C -0.3 °F /  -17.9 °C 993.5in /  33639.9hPa Calm     93% 0.0in /  0mm WeatherDisplay:10.37 W/m2 FEW
12:52 0.7 °F /  -17.4 °C -0.3 °F /  -17.9 °C 993.5in /  33639.9hPa Calm     93% 0.0in /  0mm WeatherDisplay:10.37 W/m2 FEW
12:53 0.7 °F /  -17.4 °C -0.3 °F /  -17.9 °C 993.5in /  33639.9hPa Calm     93% 0.0in /  0mm WeatherDisplay:10.37 W/m2 FEW
12:59 0.7 °F /  -17.4 °C -0.3 °F /  -17.9 °C 993.8in /  33650.1hPa Calm     93% 0.0in /  0mm WeatherDisplay:10.37 W/m2 FEW
13:04 0.7 °F /  -17.4 °C -0.3 °F /  -17.9 °C 993.5in /  33639.9hPa Calm     93% 0.0in /  0mm WeatherDisplay:10.37 W/m2 FEW
13:09 0.7 °F /  -17.4 °C -0.3 °F /  -17.9 °C 993.5in /  33639.9hPa Calm     93% 0.0in /  0mm WeatherDisplay:10.37 W/m2 FEW
13:14 0.7 °F /  -17.4 °C -0.3 °F /  -17.9 °C 993.1in /  33626.4hPa SE 1.8mph /  2.9km/h 3.2mph /  5.1km/h 93% 0.0in /  0mm WeatherDisplay:10.37 W/m2 FEW
13:19 0.7 °F /  -17.4 °C -0.3 °F /  -17.9 °C 993.1in /  33626.4hPa Calm   1.9mph /  3.1km/h 93% 0.0in /  0mm WeatherDisplay:10.37 W/m2 FEW
13:20 0.7 °F /  -17.4 °C -0.3 °F /  -17.9 °C 993.1in /  33626.4hPa Calm     93% 0.0in /  0mm WeatherDisplay:10.37 W/m2 FEW
13:25 0.7 °F /  -17.4 °C -0.3 °F /  -17.9 °C 993.1in /  33626.4hPa Calm     93% 0.0in /  0mm WeatherDisplay:10.37 W/m2 FEW
13:30 0.7 °F /  -17.4 °C -0.3 °F /  -17.9 °C 993.1in /  33626.4hPa Calm     93% 0.0in /  0mm WeatherDisplay:10.37 W/m2 FEW
13:32 0.7 °F /  -17.4 °C -0.3 °F /  -17.9 °C 993.1in /  33626.4hPa Calm   1.9mph /  3.1km/h 93% 0.0in /  0mm WeatherDisplay:10.37 W/m2 FEW
13:37 0.7 °F /  -17.4 °C -0.3 °F /  -17.9 °C 993.1in /  33626.4hPa Calm     93% 0.0in /  0mm WeatherDisplay:10.37 W/m2 FEW
13:42 0.8 °F /  -17.3 °C -0.2 °F /  -17.9 °C 992.8in /  33616.2hPa Calm     93% 0.0in /  0mm WeatherDisplay:10.37 W/m2 FEW
13:43 0.8 °F /  -17.3 °C -0.2 °F /  -17.9 °C 992.8in /  33616.2hPa SE 1.8mph /  2.9km/h 3.2mph /  5.1km/h 93% 0.0in /  0mm WeatherDisplay:10.37 W/m2 FEW
13:49 0.8 °F /  -17.3 °C -0.2 °F /  -17.9 °C 993.1in /  33626.4hPa Calm     93% 0.0in /  0mm WeatherDisplay:10.37 W/m2 FEW
13:54 0.8 °F /  -17.3 °C -0.2 °F /  -17.9 °C 992.8in /  33616.2hPa Calm     93% 0.0in /  0mm WeatherDisplay:10.37 W/m2 FEW
13:59 0.8 °F /  -17.3 °C -0.2 °F /  -17.9 °C 992.8in /  33616.2hPa Calm     93% 0.0in /  0mm WeatherDisplay:10.37 W/m2 FEW
14:02 0.8 °F /  -17.3 °C -0.2 °F /  -17.9 °C 992.8in /  33616.2hPa SE 0.5mph /  0.8km/h 3.7mph /  6km/h 93% 0.0in /  0mm WeatherDisplay:10.37 W/m2 FEW
14:07 0.8 °F /  -17.3 °C -0.2 °F /  -17.9 °C 992.8in /  33616.2hPa SE 1.3mph /  2.1km/h 1.6mph /  2.6km/h 93% 0.0in /  0mm WeatherDisplay:10.37 W/m2 FEW
14:12 0.8 °F /  -17.3 °C -0.2 °F /  -17.9 °C 992.8in /  33616.2hPa Calm     93% 0.0in /  0mm WeatherDisplay:10.37 W/m2 FEW
14:13 0.8 °F /  -17.3 °C -0.2 °F /  -17.9 °C 992.8in /  33616.2hPa Calm     93% 0.0in /  0mm WeatherDisplay:10.37 W/m2 FEW
14:19 0.8 °F /  -17.3 °C -0.2 °F /  -17.9 °C 992.8in /  33616.2hPa Calm     93% 0.0in /  0mm WeatherDisplay:10.37 W/m2 FEW
14:24 0.8 °F /  -17.3 °C -0.2 °F /  -17.9 °C 992.8in /  33616.2hPa Calm     93% 0.0in /  0mm WeatherDisplay:10.37 W/m2 FEW
14:29 0.8 °F /  -17.3 °C -0.2 °F /  -17.9 °C 992.4in /  33602.7hPa Calm     93% 0.0in /  0mm WeatherDisplay:10.37 W/m2 FEW
14:30 0.8 °F /  -17.3 °C -0.2 °F /  -17.9 °C 992.4in /  33602.7hPa Calm     93% 0.0in /  0mm WeatherDisplay:10.37 W/m2 FEW
14:31 0.8 °F /  -17.3 °C -0.2 °F /  -17.9 °C 992.4in /  33602.7hPa Calm   1.9mph /  3.1km/h 93% 0.0in /  0mm WeatherDisplay:10.37 W/m2 FEW
14:36 0.8 °F /  -17.3 °C -0.2 °F /  -17.9 °C 992.4in /  33602.7hPa Calm   3.7mph /  6km/h 93% 0.0in /  0mm WeatherDisplay:10.37 W/m2 FEW
14:42 0.8 °F /  -17.3 °C -0.2 °F /  -17.9 °C 992.1in /  33592.5hPa Calm     93% 0.0in /  0mm WeatherDisplay:10.37 W/m2 FEW
14:46 0.8 °F /  -17.3 °C -0.2 °F /  -17.9 °C 992.1in /  33592.5hPa SE 0.2mph /  0.3km/h 1.9mph /  3.1km/h 93% 0.0in /  0mm WeatherDisplay:10.37 W/m2 FEW
14:51 0.9 °F /  -17.3 °C -0.1 °F /  -17.8 °C 992.1in /  33592.5hPa Calm     93% 0.0in /  0mm WeatherDisplay:10.37 W/m2 FEW
14:57 0.9 °F /  -17.3 °C -0.1 °F /  -17.8 °C 992.1in /  33592.5hPa Calm     93% 0.0in /  0mm WeatherDisplay:10.37 W/m2 FEW
15:01 0.9 °F /  -17.3 °C -0.1 °F /  -17.8 °C 992.4in /  33602.7hPa Calm     93% 0.0in /  0mm WeatherDisplay:10.37 W/m2 FEW
15:07 0.8 °F /  -17.3 °C -0.2 °F /  -17.9 °C 992.4in /  33602.7hPa SE 1.8mph /  2.9km/h 5.6mph /  9km/h 93% 0.0in /  0mm WeatherDisplay:10.37 W/m2 FEW
15:09 0.8 °F /  -17.3 °C -0.2 °F /  -17.9 °C 992.4in /  33602.7hPa Calm     93% 0.0in /  0mm WeatherDisplay:10.37 W/m2 FEW
15:14 0.8 °F /  -17.3 °C -0.2 °F /  -17.9 °C 992.1in /  33592.5hPa Calm     93% 0.0in /  0mm WeatherDisplay:10.37 W/m2 FEW
15:19 0.8 °F /  -17.3 °C -0.2 °F /  -17.9 °C 992.1in /  33592.5hPa SE 2.6mph /  4.2km/h 5.6mph /  9km/h 93% 0.0in /  0mm WeatherDisplay:10.37 W/m2 FEW
15:25 0.8 °F /  -17.3 °C -0.2 °F /  -17.9 °C 992.1in /  33592.5hPa SE 0.3mph /  0.5km/h 3.7mph /  6km/h 93% 0.0in /  0mm WeatherDisplay:10.37 W/m2 FEW
15:26 0.9 °F /  -17.3 °C -0.1 °F /  -17.8 °C 992.1in /  33592.5hPa Calm     93% 0.0in /  0mm WeatherDisplay:10.37 W/m2 FEW
15:28 0.9 °F /  -17.3 °C -0.1 °F /  -17.8 °C 992.1in /  33592.5hPa Calm     93% 0.0in /  0mm WeatherDisplay:10.37 W/m2 FEW
15:33 0.9 °F /  -17.3 °C -0.1 °F /  -17.8 °C 992.1in /  33592.5hPa Calm     93% 0.0in /  0mm WeatherDisplay:10.37 W/m2 FEW
15:38 0.9 °F /  -17.3 °C -0.1 °F /  -17.8 °C 992.1in /  33592.5hPa Calm     93% 0.0in /  0mm WeatherDisplay:10.37 W/m2 FEW
15:43 0.9 °F /  -17.3 °C -0.1 °F /  -17.8 °C 991.8in /  33582.3hPa SE 1.9mph /  3.1km/h 5.6mph /  9km/h 93% 0.0in /  0mm WeatherDisplay:10.37 W/m2 FEW
15:48 0.9 °F /  -17.3 °C -0.1 °F /  -17.8 °C 991.8in /  33582.3hPa SE 1.0mph /  1.6km/h 3.7mph /  6km/h 93% 0.0in /  0mm WeatherDisplay:10.37 W/m2 FEW
15:50 0.9 °F /  -17.3 °C -0.1 °F /  -17.8 °C 991.8in /  33582.3hPa SE 0.8mph /  1.3km/h 7.4mph /  11.9km/h 93% 0.0in /  0mm WeatherDisplay:10.37 W/m2 FEW
15:55 0.9 °F /  -17.3 °C -0.1 °F /  -17.8 °C 991.8in /  33582.3hPa Calm     93% 0.0in /  0mm WeatherDisplay:10.37 W/m2 FEW
16:00 0.9 °F /  -17.3 °C -0.1 °F /  -17.8 °C 991.4in /  33568.8hPa SE 1.3mph /  2.1km/h 3.7mph /  6km/h 93% 0.0in /  0mm WeatherDisplay:10.37 W/m2 FEW
16:03 0.9 °F /  -17.3 °C -0.1 °F /  -17.8 °C 991.4in /  33568.8hPa Calm   5.6mph /  9km/h 93% 0.0in /  0mm WeatherDisplay:10.37 W/m2 FEW
16:08 0.9 °F /  -17.3 °C -0.1 °F /  -17.8 °C 991.4in /  33568.8hPa SE 0.2mph /  0.3km/h 5.6mph /  9km/h 93% 0.0in /  0mm WeatherDisplay:10.37 W/m2 FEW
16:12 0.9 °F /  -17.3 °C -0.1 °F /  -17.8 °C 991.4in /  33568.8hPa SE 1.1mph /  1.8km/h 3.7mph /  6km/h 93% 0.0in /  0mm WeatherDisplay:10.37 W/m2 FEW
16:17 0.9 °F /  -17.3 °C -0.1 °F /  -17.8 °C 991.4in /  33568.8hPa Calm   1.9mph /  3.1km/h 93% 0.0in /  0mm WeatherDisplay:10.37 W/m2 FEW
16:19 0.9 °F /  -17.3 °C -0.1 °F /  -17.8 °C 991.4in /  33568.8hPa SE 0.6mph /  1km/h 3.7mph /  6km/h 93% 0.0in /  0mm WeatherDisplay:10.37 W/m2 FEW
16:24 0.9 °F /  -17.3 °C -0.1 °F /  -17.8 °C 991.4in /  33568.8hPa ESE 1.6mph /  2.6km/h 5.6mph /  9km/h 93% 0.0in /  0mm WeatherDisplay:10.37 W/m2 FEW
16:29 1.0 °F /  -17.2 °C 0.0 °F /  -17.8 °C 991.1in /  33558.6hPa ESE 2.7mph /  4.3km/h 11.1mph /  17.9km/h 93% 0.0in /  0mm WeatherDisplay:10.37 W/m2 FEW
16:34 1.0 °F /  -17.2 °C 0.0 °F /  -17.8 °C 991.1in /  33558.6hPa SE 0.3mph /  0.5km/h 1.6mph /  2.6km/h 93% 0.0in /  0mm WeatherDisplay:10.37 W/m2 FEW
16:39 1.0 °F /  -17.2 °C 0.0 °F /  -17.8 °C 991.1in /  33558.6hPa SE 1.1mph /  1.8km/h 6.4mph /  10.3km/h 93% 0.0in /  0mm WeatherDisplay:10.37 W/m2 FEW
16:44 1.1 °F /  -17.2 °C 0.1 °F /  -17.7 °C 991.1in /  33558.6hPa SE 0.8mph /  1.3km/h 7.4mph /  11.9km/h 93% 0.0in /  0mm WeatherDisplay:10.37 W/m2 FEW
16:49 1.1 °F /  -17.2 °C 0.1 °F /  -17.7 °C 990.7in /  33545.1hPa Calm     93% 0.0in /  0mm WeatherDisplay:10.37 W/m2 FEW
16:54 1.1 °F /  -17.2 °C 0.1 °F /  -17.7 °C 990.7in /  33545.1hPa East 1.9mph /  3.1km/h 9.3mph /  15km/h 93% 0.0in /  0mm WeatherDisplay:10.37 W/m2 FEW
16:59 1.1 °F /  -17.2 °C 0.1 °F /  -17.7 °C 990.7in /  33545.1hPa East 5.5mph /  8.9km/h 5.6mph /  9km/h 93% 0.0in /  0mm WeatherDisplay:10.37 W/m2 FEW
17:04 1.1 °F /  -17.2 °C 0.1 °F /  -17.7 °C 990.4in /  33534.9hPa East 1.1mph /  1.8km/h 5.6mph /  9km/h 93% 0.0in /  0mm WeatherDisplay:10.37 W/m2 FEW
17:06 1.1 °F /  -17.2 °C 0.1 °F /  -17.7 °C 990.4in /  33534.9hPa Calm     93% 0.0in /  0mm WeatherDisplay:10.37 W/m2 FEW
17:11 1.1 °F /  -17.2 °C 0.1 °F /  -17.7 °C 990.4in /  33534.9hPa East 1.3mph /  2.1km/h 3.7mph /  6km/h 93% 0.0in /  0mm WeatherDisplay:10.37 W/m2 FEW
17:16 1.1 °F /  -17.2 °C 0.1 °F /  -17.7 °C 990.1in /  33524.8hPa East 1.4mph /  2.3km/h 5.6mph /  9km/h 93% 0.0in /  0mm WeatherDisplay:10.37 W/m2 FEW
17:21 1.1 °F /  -17.2 °C 0.1 °F /  -17.7 °C 990.4in /  33534.9hPa SE 1.8mph /  2.9km/h 5.6mph /  9km/h 93% 0.0in /  0mm WeatherDisplay:10.37 W/m2 FEW
17:26 1.1 °F /  -17.2 °C 0.1 °F /  -17.7 °C 990.1in /  33524.8hPa ESE 3.2mph /  5.1km/h 5.6mph /  9km/h 93% 0.0in /  0mm WeatherDisplay:10.37 W/m2 FEW
17:31 1.1 °F /  -17.2 °C 0.1 °F /  -17.7 °C 990.1in /  33524.8hPa ESE 4.3mph /  6.9km/h 5.6mph /  9km/h 93% 0.0in /  0mm WeatherDisplay:10.37 W/m2 FEW
17:36 1.2 °F /  -17.1 °C 0.2 °F /  -17.7 °C 990.1in /  33524.8hPa ESE 0.3mph /  0.5km/h 5.6mph /  9km/h 93% 0.0in /  0mm WeatherDisplay:10.37 W/m2 FEW
17:41 1.2 °F /  -17.1 °C 0.2 °F /  -17.7 °C 990.1in /  33524.8hPa ESE 0.8mph /  1.3km/h 9.3mph /  15km/h 93% 0.0in /  0mm WeatherDisplay:10.37 W/m2 FEW
17:46 1.2 °F /  -17.1 °C 0.2 °F /  -17.7 °C 990.1in /  33524.8hPa Calm     93% 0.0in /  0mm WeatherDisplay:10.37 W/m2 FEW
17:51 1.2 °F /  -17.1 °C 0.2 °F /  -17.7 °C 990.1in /  33524.8hPa Calm   9.3mph /  15km/h 93% 0.0in /  0mm WeatherDisplay:10.37 W/m2 FEW
17:53 1.2 °F /  -17.1 °C 0.2 °F /  -17.7 °C 990.1in /  33524.8hPa ESE 1.4mph /  2.3km/h 5.6mph /  9km/h 93% 0.0in /  0mm WeatherDisplay:10.37 W/m2 FEW
17:58 1.2 °F /  -17.1 °C 0.2 °F /  -17.7 °C 990.1in /  33524.8hPa Calm   5.6mph /  9km/h 93% 0.0in /  0mm WeatherDisplay:10.37 W/m2 FEW
18:03 1.2 °F /  -17.1 °C 0.2 °F /  -17.7 °C 989.7in /  33511.2hPa SSE 4.3mph /  6.9km/h 13.0mph /  20.9km/h 93% 0.0in /  0mm WeatherDisplay:10.37 W/m2 FEW
18:08 1.2 °F /  -17.1 °C 0.2 °F /  -17.7 °C 989.7in /  33511.2hPa ESE 2.3mph /  3.7km/h 5.6mph /  9km/h 93% 0.0in /  0mm WeatherDisplay:10.37 W/m2 FEW
18:09 1.2 °F /  -17.1 °C 0.2 °F /  -17.7 °C 989.7in /  33511.2hPa ESE 1.8mph /  2.9km/h 5.6mph /  9km/h 93% 0.0in /  0mm WeatherDisplay:10.37 W/m2 FEW
18:14 1.3 °F /  -17.1 °C 0.3 °F /  -17.6 °C 989.7in /  33511.2hPa ESE 1.3mph /  2.1km/h 3.2mph /  5.1km/h 93% 0.0in /  0mm WeatherDisplay:10.37 W/m2 FEW
18:19 1.3 °F /  -17.1 °C 0.3 °F /  -17.6 °C 989.7in /  33511.2hPa ESE 1.4mph /  2.3km/h 5.6mph /  9km/h 93% 0.0in /  0mm WeatherDisplay:10.37 W/m2 FEW
18:24 1.3 °F /  -17.1 °C 0.3 °F /  -17.6 °C 989.7in /  33511.2hPa East 6.6mph /  10.6km/h 13.0mph /  20.9km/h 93% 0.3in /  7.62mm WeatherDisplay:10.37 W/m2 RA
18:28 1.3 °F /  -17.1 °C 0.3 °F /  -17.6 °C 989.7in /  33511.2hPa East 2.9mph /  4.7km/h 5.6mph /  9km/h 93% 0.3in /  7.62mm WeatherDisplay:10.37 W/m2 RA
18:34 1.4 °F /  -17 °C 0.4 °F /  -17.6 °C 989.7in /  33511.2hPa ESE 5.3mph /  8.5km/h 16.7mph /  26.9km/h 93% 0.3in /  7.62mm WeatherDisplay:10.37 W/m2 FEW
18:35 1.3 °F /  -17.1 °C 0.3 °F /  -17.6 °C 989.7in /  33511.2hPa ESE 1.4mph /  2.3km/h 5.6mph /  9km/h 93% 0.3in /  7.62mm WeatherDisplay:10.37 W/m2 FEW
18:41 1.3 °F /  -17.1 °C 0.3 °F /  -17.6 °C 989.7in /  33511.2hPa ESE 2.3mph /  3.7km/h 5.6mph /  9km/h 93% 0.3in /  7.62mm WeatherDisplay:10.37 W/m2 FEW
18:45 1.3 °F /  -17.1 °C 0.3 °F /  -17.6 °C 989.7in /  33511.2hPa ESE 2.4mph /  3.9km/h 5.6mph /  9km/h 93% 0.3in /  7.62mm WeatherDisplay:10.37 W/m2 FEW
18:50 1.3 °F /  -17.1 °C 0.3 °F /  -17.6 °C 989.7in /  33511.2hPa ESE 0.8mph /  1.3km/h 5.6mph /  9km/h 93% 0.3in /  7.62mm WeatherDisplay:10.37 W/m2 FEW
18:55 1.2 °F /  -17.1 °C 0.2 °F /  -17.7 °C 989.7in /  33511.2hPa ESE 0.2mph /  0.3km/h 1.9mph /  3.1km/h 93% 0.5in /  12.7mm WeatherDisplay:10.37 W/m2 RA
19:00 1.1 °F /  -17.2 °C 0.1 °F /  -17.7 °C 989.7in /  33511.2hPa SSE 0.5mph /  0.8km/h 11.1mph /  17.9km/h 93% 0.5in /  12.7mm WeatherDisplay:10.37 W/m2 RA
19:05 1.0 °F /  -17.2 °C 0.0 °F /  -17.8 °C 989.4in /  33501.1hPa Calm   3.7mph /  6km/h 93% 0.8in /  20.32mm WeatherDisplay:10.37 W/m2 RA
19:06 0.9 °F /  -17.3 °C -0.1 °F /  -17.8 °C 989.4in /  33501.1hPa Calm     93% 0.8in /  20.32mm WeatherDisplay:10.37 W/m2 RA
19:11 0.8 °F /  -17.3 °C 0.0 °F /  -17.8 °C 989.4in /  33501.1hPa SE 0.2mph /  0.3km/h 3.2mph /  5.1km/h 94% 1.0in /  25.4mm WeatherDisplay:10.37 W/m2 RA
19:16 0.8 °F /  -17.3 °C -0.2 °F /  -17.9 °C 989.4in /  33501.1hPa Calm     93% 1.3in /  33.02mm WeatherDisplay:10.37 W/m2 RA
19:21 0.7 °F /  -17.4 °C -0.3 °F /  -17.9 °C 989.4in /  33501.1hPa Calm     93% 1.5in /  38.1mm WeatherDisplay:10.37 W/m2 RA
19:23 0.7 °F /  -17.4 °C -0.3 °F /  -17.9 °C 989.4in /  33501.1hPa Calm     93% 1.3in /  33.02mm WeatherDisplay:10.37 W/m2 RA
19:28 0.7 °F /  -17.4 °C -0.3 °F /  -17.9 °C 989.4in /  33501.1hPa Calm     93% 1.3in /  33.02mm WeatherDisplay:10.37 W/m2 RA
19:33 0.7 °F /  -17.4 °C -0.3 °F /  -17.9 °C 989.1in /  33490.9hPa Calm     93% 1.3in /  33.02mm WeatherDisplay:10.37 W/m2 FEW
19:38 0.7 °F /  -17.4 °C -0.3 °F /  -17.9 °C 989.1in /  33490.9hPa Calm     93% 1.3in /  33.02mm WeatherDisplay:10.37 W/m2 FEW
19:43 0.7 °F /  -17.4 °C -0.3 °F /  -17.9 °C 989.1in /  33490.9hPa Calm     93% 1.5in /  38.1mm WeatherDisplay:10.37 W/m2 RA
19:48 0.7 °F /  -17.4 °C -0.3 °F /  -17.9 °C 989.1in /  33490.9hPa SE 1.4mph /  2.3km/h 5.6mph /  9km/h 93% 1.5in /  38.1mm WeatherDisplay:10.37 W/m2 RA
19:53 0.7 °F /  -17.4 °C -0.3 °F /  -17.9 °C 988.7in /  33477.4hPa SE 2.6mph /  4.2km/h 5.6mph /  9km/h 93% 1.3in /  33.02mm WeatherDisplay:10.37 W/m2 FEW
19:58 0.7 °F /  -17.4 °C -0.3 °F /  -17.9 °C 988.7in /  33477.4hPa ESE 0.5mph /  0.8km/h 3.7mph /  6km/h 93% 1.0in /  25.4mm WeatherDisplay:10.37 W/m2 FEW
20:02 0.6 °F /  -17.4 °C -0.4 °F /  -18 °C 988.7in /  33477.4hPa Calm     93% 1.0in /  25.4mm WeatherDisplay:10.37 W/m2 FEW
20:07 0.6 °F /  -17.4 °C -0.4 °F /  -18 °C 988.7in /  33477.4hPa Calm   1.9mph /  3.1km/h 93% 0.8in /  20.32mm WeatherDisplay:10.37 W/m2 FEW
20:12 0.6 °F /  -17.4 °C -0.4 °F /  -18 °C 988.7in /  33477.4hPa Calm   5.6mph /  9km/h 93% 0.5in /  12.7mm WeatherDisplay:10.37 W/m2 FEW
20:17 0.6 °F /  -17.4 °C -0.4 °F /  -18 °C 988.7in /  33477.4hPa East 0.6mph /  1km/h   93% 0.5in /  12.7mm WeatherDisplay:10.37 W/m2 FEW
20:19 0.6 °F /  -17.4 °C -0.4 °F /  -18 °C 988.4in /  33467.2hPa ESE 1.9mph /  3.1km/h 5.6mph /  9km/h 93% 0.5in /  12.7mm WeatherDisplay:10.37 W/m2 FEW
20:25 0.7 °F /  -17.4 °C -0.3 °F /  -17.9 °C 988.4in /  33467.2hPa Calm     93% 0.3in /  7.62mm WeatherDisplay:10.37 W/m2 FEW
20:30 0.6 °F /  -17.4 °C -0.4 °F /  -18 °C 988.4in /  33467.2hPa Calm     93% 0.3in /  7.62mm WeatherDisplay:10.37 W/m2 FEW
20:35 0.7 °F /  -17.4 °C -0.3 °F /  -17.9 °C 988.4in /  33467.2hPa Calm     93% 0.3in /  7.62mm WeatherDisplay:10.37 W/m2 FEW
20:41 0.7 °F /  -17.4 °C -0.3 °F /  -17.9 °C 988.4in /  33467.2hPa Calm   5.6mph /  9km/h 93% 0.3in /  7.62mm WeatherDisplay:10.37 W/m2 FEW
20:46 0.7 °F /  -17.4 °C -0.3 °F /  -17.9 °C 988.4in /  33467.2hPa ESE 0.5mph /  0.8km/h 5.6mph /  9km/h 93% 0.0in /  0mm WeatherDisplay:10.37 W/m2 FEW
20:51 0.7 °F /  -17.4 °C -0.3 °F /  -17.9 °C 988.4in /  33467.2hPa ESE 0.3mph /  0.5km/h 1.9mph /  3.1km/h 93% 0.0in /  0mm WeatherDisplay:10.37 W/m2 FEW
20:56 0.7 °F /  -17.4 °C -0.3 °F /  -17.9 °C 988.4in /  33467.2hPa Calm     93% 0.0in /  0mm WeatherDisplay:10.37 W/m2 FEW
21:01 0.7 °F /  -17.4 °C -0.3 °F /  -17.9 °C 988.4in /  33467.2hPa Calm     93% 0.0in /  0mm WeatherDisplay:10.37 W/m2 FEW
21:05 0.7 °F /  -17.4 °C -0.3 °F /  -17.9 °C 988.4in /  33467.2hPa Calm     93% 0.0in /  0mm WeatherDisplay:10.37 W/m2 FEW
21:10 0.7 °F /  -17.4 °C -0.3 °F /  -17.9 °C 988.7in /  33477.4hPa Calm     93% 0.0in /  0mm WeatherDisplay:10.37 W/m2 FEW
21:13 0.7 °F /  -17.4 °C -0.3 °F /  -17.9 °C 988.4in /  33467.2hPa Calm     93% 0.0in /  0mm WeatherDisplay:10.37 W/m2 FEW
21:18 0.7 °F /  -17.4 °C -0.3 °F /  -17.9 °C 988.4in /  33467.2hPa Calm     93% 0.0in /  0mm WeatherDisplay:10.37 W/m2 FEW
21:20 0.7 °F /  -17.4 °C -0.3 °F /  -17.9 °C 988.4in /  33467.2hPa Calm     93% 0.0in /  0mm WeatherDisplay:10.37 W/m2 FEW
21:25 0.7 °F /  -17.4 °C -0.3 °F /  -17.9 °C 988.4in /  33467.2hPa ESE 1.1mph /  1.8km/h 5.6mph /  9km/h 93% 0.0in /  0mm WeatherDisplay:10.37 W/m2 FEW
21:29 0.8 °F /  -17.3 °C -0.2 °F /  -17.9 °C 988.7in /  33477.4hPa Calm     93% 0.0in /  0mm WeatherDisplay:10.37 W/m2 FEW
21:32 0.8 °F /  -17.3 °C -0.2 °F /  -17.9 °C 988.7in /  33477.4hPa Calm   1.9mph /  3.1km/h 93% 0.0in /  0mm WeatherDisplay:10.37 W/m2 FEW
21:38 0.8 °F /  -17.3 °C -0.2 °F /  -17.9 °C 988.7in /  33477.4hPa Calm     93% 0.0in /  0mm WeatherDisplay:10.37 W/m2 FEW
21:39 0.8 °F /  -17.3 °C -0.2 °F /  -17.9 °C 988.7in /  33477.4hPa Calm     93% 0.0in /  0mm WeatherDisplay:10.37 W/m2 FEW
21:45 0.8 °F /  -17.3 °C -0.2 °F /  -17.9 °C 988.7in /  33477.4hPa Calm     93% 0.0in /  0mm WeatherDisplay:10.37 W/m2 FEW
21:50 0.8 °F /  -17.3 °C -0.2 °F /  -17.9 °C 988.7in /  33477.4hPa ESE 0.3mph /  0.5km/h 1.9mph /  3.1km/h 93% 0.0in /  0mm WeatherDisplay:10.37 W/m2 FEW
21:51 0.8 °F /  -17.3 °C -0.2 °F /  -17.9 °C 988.7in /  33477.4hPa Calm     93% 0.0in /  0mm WeatherDisplay:10.37 W/m2 FEW
21:56 0.7 °F /  -17.4 °C -0.3 °F /  -17.9 °C 988.7in /  33477.4hPa Calm     93% 0.0in /  0mm WeatherDisplay:10.37 W/m2 FEW
22:01 0.7 °F /  -17.4 °C -0.3 °F /  -17.9 °C 988.7in /  33477.4hPa Calm     93% 0.0in /  0mm WeatherDisplay:10.37 W/m2 FEW
22:06 0.7 °F /  -17.4 °C -0.3 °F /  -17.9 °C 988.7in /  33477.4hPa Calm     93% 0.0in /  0mm WeatherDisplay:10.37 W/m2 FEW
22:10 0.8 °F /  -17.3 °C -0.2 °F /  -17.9 °C 988.7in /  33477.4hPa Calm     93% 0.0in /  0mm WeatherDisplay:10.37 W/m2 FEW
22:15 0.8 °F /  -17.3 °C -0.2 °F /  -17.9 °C 988.7in /  33477.4hPa Calm     93% 0.0in /  0mm WeatherDisplay:10.37 W/m2 FEW
22:18 0.8 °F /  -17.3 °C -0.2 °F /  -17.9 °C 988.7in /  33477.4hPa Calm     93% 0.0in /  0mm WeatherDisplay:10.37 W/m2 FEW
22:23 0.8 °F /  -17.3 °C -0.2 °F /  -17.9 °C 988.7in /  33477.4hPa Calm     93% 0.0in /  0mm WeatherDisplay:10.37 W/m2 FEW
22:25 0.8 °F /  -17.3 °C -0.2 °F /  -17.9 °C 988.7in /  33477.4hPa Calm     93% 0.0in /  0mm WeatherDisplay:10.37 W/m2 FEW
22:28 0.8 °F /  -17.3 °C -0.2 °F /  -17.9 °C 988.7in /  33477.4hPa Calm     93% 0.0in /  0mm WeatherDisplay:10.37 W/m2 FEW
22:33 0.8 °F /  -17.3 °C -0.2 °F /  -17.9 °C 988.7in /  33477.4hPa Calm     93% 0.0in /  0mm WeatherDisplay:10.37 W/m2 FEW
22:39 0.8 °F /  -17.3 °C -0.2 °F /  -17.9 °C 988.7in /  33477.4hPa Calm     93% 0.0in /  0mm WeatherDisplay:10.37 W/m2 FEW
22:44 0.8 °F /  -17.3 °C -0.2 °F /  -17.9 °C 988.7in /  33477.4hPa Calm     93% 0.0in /  0mm WeatherDisplay:10.37 W/m2 FEW
22:46 0.8 °F /  -17.3 °C -0.2 °F /  -17.9 °C 988.7in /  33477.4hPa Calm     93% 0.0in /  0mm WeatherDisplay:10.37 W/m2 FEW
22:51 0.8 °F /  -17.3 °C -0.2 °F /  -17.9 °C 988.7in /  33477.4hPa Calm     93% 0.0in /  0mm WeatherDisplay:10.37 W/m2 FEW
22:56 0.8 °F /  -17.3 °C -0.2 °F /  -17.9 °C 988.7in /  33477.4hPa Calm     93% 0.3in /  7.62mm WeatherDisplay:10.37 W/m2 RA
23:02 0.8 °F /  -17.3 °C -0.2 °F /  -17.9 °C 988.7in /  33477.4hPa Calm     93% 0.3in /  7.62mm WeatherDisplay:10.37 W/m2 RA
23:07 0.8 °F /  -17.3 °C -0.2 °F /  -17.9 °C 988.7in /  33477.4hPa Calm     93% 0.3in /  7.62mm WeatherDisplay:10.37 W/m2 FEW
23:12 0.8 °F /  -17.3 °C -0.2 °F /  -17.9 °C 988.7in /  33477.4hPa Calm     93% 0.3in /  7.62mm WeatherDisplay:10.37 W/m2 FEW
23:17 0.8 °F /  -17.3 °C -0.2 °F /  -17.9 °C 988.7in /  33477.4hPa Calm     93% 0.3in /  7.62mm WeatherDisplay:10.37 W/m2 FEW
23:19 0.8 °F /  -17.3 °C -0.2 °F /  -17.9 °C 988.7in /  33477.4hPa Calm     93% 0.3in /  7.62mm WeatherDisplay:10.37 W/m2 FEW
23:25 0.8 °F /  -17.3 °C -0.2 °F /  -17.9 °C 988.7in /  33477.4hPa Calm     93% 0.3in /  7.62mm WeatherDisplay:10.37 W/m2 FEW
23:30 0.7 °F /  -17.4 °C -0.3 °F /  -17.9 °C 988.7in /  33477.4hPa Calm     93% 0.3in /  7.62mm WeatherDisplay:10.37 W/m2 FEW
23:35 0.7 °F /  -17.4 °C -0.3 °F /  -17.9 °C 988.7in /  33477.4hPa Calm     93% 0.3in /  7.62mm WeatherDisplay:10.37 W/m2 FEW
23:40 0.7 °F /  -17.4 °C -0.3 °F /  -17.9 °C 988.7in /  33477.4hPa ESE 0.2mph /  0.3km/h 1.9mph /  3.1km/h 93% 0.3in /  7.62mm WeatherDisplay:10.37 W/m2 FEW
23:45 0.8 °F /  -17.3 °C -0.2 °F /  -17.9 °C 988.7in /  33477.4hPa Calm     93% 0.3in /  7.62mm WeatherDisplay:10.37 W/m2 FEW
23:50 0.8 °F /  -17.3 °C -0.2 °F /  -17.9 °C 988.7in /  33477.4hPa Calm     93% 0.3in /  7.62mm WeatherDisplay:10.37 W/m2 FEW
23:55 0.8 °F /  -17.3 °C 0.0 °F /  -17.8 °C 988.7in /  33477.4hPa Calm     94% 0.0in /  0mm WeatherDisplay:10.37 W/m2 FEW
Tuulensuunkaari, Veikkola, Suomi
Compliments of Weather Underground - 2.75 mb